Time;durP1;ratioP1;P1;durP2;ratioP2;P2;SDS_P1;SDS_P2;PMS_P1;PMS_P2;Temp;Humidity;BMP_temperature;BMP_pressure;BME280_temperature;BME280_humidity;BME280_pressure;Samples;Min_cycle;Max_cycle;Signal;HPM_P1;HPM_P2
2022/09/08 00:00:50;;;;;;;9.63;8.73;;;19.60;99.90;;;;;;5085172;28;20454;-70
2022/09/08 00:03:18;;;;;;;9.60;8.60;;;19.60;99.90;;;;;;5084547;28;20400;-71
2022/09/08 00:06:00;;;;;;;10.07;9.15;;;19.60;99.90;;;;;;5085296;28;20372;-73
2022/09/08 00:08:25;;;;;;;11.30;8.98;;;19.50;99.90;;;;;;5084561;28;20392;-72
2022/09/08 00:10:54;;;;;;;10.20;9.20;;;19.40;99.90;;;;;;5084189;28;20411;-71
2022/09/08 00:13:20;;;;;;;10.70;9.60;;;19.50;99.90;;;;;;5084623;28;20477;-71
2022/09/08 00:15:47;;;;;;;9.75;8.80;;;19.50;99.90;;;;;;5083886;28;20738;-71
2022/09/08 00:18:12;;;;;;;10.48;9.38;;;19.40;99.90;;;;;;5083539;28;20407;-71
2022/09/08 00:20:38;;;;;;;9.95;8.98;;;19.50;99.90;;;;;;5068227;28;20613;-71
2022/09/08 00:23:04;;;;;;;10.13;9.23;;;19.50;99.90;;;;;;5085692;28;20482;-71
2022/09/08 00:25:29;;;;;;;9.67;8.77;;;19.40;99.90;;;;;;5086790;28;20407;-71
2022/09/08 00:27:55;;;;;;;11.50;9.30;;;19.40;99.90;;;;;;5085541;28;20407;-71
2022/09/08 00:30:21;;;;;;;10.40;9.50;;;19.40;99.90;;;;;;5086608;28;20383;-71
2022/09/08 00:32:46;;;;;;;10.07;9.17;;;19.30;99.90;;;;;;5089220;28;20387;-71
2022/09/08 00:35:14;;;;;;;10.13;9.23;;;19.20;99.90;;;;;;5087897;28;20406;-71
2022/09/08 00:37:40;;;;;;;9.85;8.88;;;19.20;99.90;;;;;;5088136;28;20399;-71
2022/09/08 00:40:07;;;;;;;9.60;8.80;;;19.20;99.90;;;;;;5086689;28;20407;-71
2022/09/08 00:42:32;;;;;;;10.55;9.45;;;19.20;99.90;;;;;;5087246;28;20713;-71
2022/09/08 00:44:58;;;;;;;10.57;9.57;;;19.20;99.90;;;;;;5087252;28;20488;-73
2022/09/08 00:47:29;;;;;;;10.27;9.30;;;19.20;99.90;;;;;;5086988;28;20489;-74
2022/09/08 00:50:03;;;;;;;9.80;8.90;;;19.20;99.90;;;;;;5086094;28;20733;-71
2022/09/08 00:52:50;;;;;;;10.70;9.63;;;19.10;99.90;;;;;;5084582;28;20410;-71
2022/09/08 00:55:17;;;;;;;10.75;9.68;;;19.00;99.90;;;;;;5083441;28;20855;-71
2022/09/08 00:57:43;;;;;;;10.87;9.77;;;19.00;99.90;;;;;;5086061;28;20465;-71
2022/09/08 01:00:12;;;;;;;10.17;9.17;;;18.90;99.90;;;;;;5087720;28;20387;-71
2022/09/08 01:02:37;;;;;;;10.05;8.75;;;19.00;99.90;;;;;;5088361;28;20383;-71
2022/09/08 01:05:09;;;;;;;11.00;9.57;;;19.00;99.90;;;;;;5087862;28;20396;-71
2022/09/08 01:13:37;;;;;;;9.93;9.02;;;18.90;99.90;;;;;;5069246;28;20482;-71
2022/09/08 01:16:05;;;;;;;12.53;9.23;;;18.90;99.90;;;;;;5084168;28;20384;-71
2022/09/08 01:18:32;;;;;;;11.05;10.05;;;18.90;99.90;;;;;;5067905;28;20407;-72
2022/09/08 01:21:15;;;;;;;10.25;8.85;;;18.80;99.90;;;;;;5085643;28;20383;-72
2022/09/08 01:24:05;;;;;;;10.50;9.60;;;18.80;99.90;;;;;;5085890;28;20380;-72
2022/09/08 01:26:39;;;;;;;10.43;9.32;;;18.80;99.90;;;;;;5069973;28;20503;-71
2022/09/08 01:29:07;;;;;;;10.07;8.98;;;18.80;99.90;;;;;;5071839;28;20477;-72
2022/09/08 01:31:39;;;;;;;9.73;8.82;;;18.80;99.90;;;;;;5087620;28;20466;-73
2022/09/08 01:34:05;;;;;;;10.32;9.35;;;18.80;99.90;;;;;;5071409;28;20384;-72
2022/09/08 01:36:31;;;;;;;10.07;9.20;;;18.70;99.90;;;;;;5070727;28;20722;-72
2022/09/08 01:38:56;;;;;;;10.50;9.50;;;18.70;99.90;;;;;;5071646;28;20411;-72
2022/09/08 01:41:22;;;;;;;10.53;9.53;;;18.70;99.90;;;;;;5085638;28;20404;-72
2022/09/08 01:43:48;;;;;;;9.95;8.95;;;18.70;99.90;;;;;;5088072;28;20394;-72
2022/09/08 01:46:13;;;;;;;10.00;9.00;;;18.60;99.90;;;;;;5090125;28;20487;-72
2022/09/08 01:48:39;;;;;;;9.77;8.50;;;18.60;99.90;;;;;;5070555;28;20478;-73
2022/09/08 01:51:07;;;;;;;10.37;9.37;;;18.60;99.90;;;;;;5086972;28;20476;-72
2022/09/08 01:53:33;;;;;;;10.32;9.32;;;18.50;99.90;;;;;;5088697;28;20434;-72
2022/09/08 01:55:59;;;;;;;10.55;9.55;;;18.40;99.90;;;;;;5072599;28;20514;-72
2022/09/08 01:58:25;;;;;;;9.98;9.07;;;18.40;99.90;;;;;;5086962;28;20502;-72
2022/09/08 02:00:51;;;;;;;10.27;9.10;;;18.30;99.90;;;;;;5086610;28;20415;-72
2022/09/08 02:03:17;;;;;;;9.75;8.85;;;18.40;99.90;;;;;;5069663;28;20411;-73
2022/09/08 02:05:44;;;;;;;9.32;8.45;;;18.30;99.90;;;;;;5088008;28;20387;-73
2022/09/08 02:08:10;;;;;;;9.35;8.50;;;18.20;99.90;;;;;;5086516;28;20509;-73
2022/09/08 02:10:36;;;;;;;9.88;8.88;;;18.20;99.90;;;;;;5086863;28;20787;-72
2022/09/08 02:13:02;;;;;;;9.57;8.40;;;18.20;99.90;;;;;;5084934;28;20408;-72
2022/09/08 02:15:28;;;;;;;10.98;8.65;;;18.20;99.90;;;;;;5069210;28;20736;-72
2022/09/08 02:17:54;;;;;;;9.85;8.95;;;18.20;99.90;;;;;;5085464;28;20443;-72
2022/09/08 02:20:21;;;;;;;10.33;9.20;;;18.20;99.90;;;;;;5085834;28;20383;-72
2022/09/08 02:22:46;;;;;;;10.93;9.35;;;18.20;99.90;;;;;;5085181;28;20441;-72
2022/09/08 02:25:12;;;;;;;9.27;8.37;;;18.20;99.90;;;;;;5086310;28;20486;-72
2022/09/08 02:27:37;;;;;;;9.95;8.70;;;18.20;99.90;;;;;;5085450;28;20672;-72
2022/09/08 02:30:04;;;;;;;8.77;7.93;;;18.10;99.90;;;;;;5087610;28;20387;-72
2022/09/08 02:32:29;;;;;;;9.10;8.20;;;18.10;99.90;;;;;;5072340;28;20379;-72
2022/09/08 02:34:56;;;;;;;11.00;8.50;;;18.10;99.90;;;;;;5090930;28;20388;-73
2022/09/08 02:37:21;;;;;;;9.10;8.07;;;18.10;99.90;;;;;;5075662;28;20384;-73
2022/09/08 02:39:47;;;;;;;9.20;8.47;;;18.00;99.90;;;;;;5091886;28;20396;-72
2022/09/08 02:42:13;;;;;;;9.87;8.87;;;18.00;99.90;;;;;;5092240;28;20527;-72
2022/09/08 02:44:39;;;;;;;9.45;8.55;;;18.00;99.90;;;;;;5090999;28;20394;-72
2022/09/08 02:47:05;;;;;;;9.25;7.93;;;18.00;99.90;;;;;;5090372;28;20375;-72
2022/09/08 02:49:32;;;;;;;9.13;8.33;;;17.90;99.90;;;;;;5090877;28;20386;-72
2022/09/08 02:51:58;;;;;;;8.65;7.85;;;17.90;99.90;;;;;;5074962;28;20383;-72
2022/09/08 02:54:24;;;;;;;9.30;7.72;;;17.90;99.90;;;;;;5092081;28;20395;-72
2022/09/08 02:56:50;;;;;;;8.52;7.72;;;17.90;99.90;;;;;;5091610;28;20654;-72
2022/09/08 02:59:15;;;;;;;8.90;8.00;;;17.80;99.90;;;;;;5090908;28;20434;-71
2022/09/08 03:01:43;;;;;;;8.27;7.57;;;17.80;99.90;;;;;;5092469;28;20395;-71
2022/09/08 03:04:09;;;;;;;8.57;7.78;;;17.80;99.90;;;;;;5092172;28;20420;-71
2022/09/08 03:06:35;;;;;;;8.65;7.80;;;17.80;99.90;;;;;;5091830;28;20380;-72
2022/09/08 03:09:00;;;;;;;8.00;7.30;;;17.80;99.90;;;;;;5091510;28;20384;-71
2022/09/08 03:11:26;;;;;;;8.60;7.50;;;17.80;99.90;;;;;;5091014;28;20445;-71
2022/09/08 03:13:52;;;;;;;8.53;7.73;;;17.80;99.90;;;;;;5090844;28;20512;-72
2022/09/08 03:16:18;;;;;;;8.43;7.63;;;17.70;99.90;;;;;;5091033;28;20487;-72
2022/09/08 03:18:43;;;;;;;7.90;7.07;;;17.70;99.90;;;;;;5073138;28;20464;-72
2022/09/08 03:21:13;;;;;;;8.10;7.30;;;17.70;99.90;;;;;;5072913;28;20430;-71
2022/09/08 03:23:39;;;;;;;8.18;7.38;;;17.70;99.90;;;;;;5089524;28;20387;-71
2022/09/08 03:26:09;;;;;;;8.43;7.10;;;17.70;99.90;;;;;;5089506;28;20399;-72
2022/09/08 03:28:36;;;;;;;7.78;7.07;;;17.70;99.90;;;;;;5090065;28;20384;-72
2022/09/08 03:31:05;;;;;;;7.68;6.93;;;17.70;99.90;;;;;;5090002;28;20752;-72
2022/09/08 03:33:31;;;;;;;8.80;6.72;;;17.70;99.90;;;;;;5090189;28;20382;-72
2022/09/08 03:36:00;;;;;;;8.03;6.63;;;17.70;99.90;;;;;;5074898;28;20384;-72
2022/09/08 03:38:26;;;;;;;10.25;7.22;;;17.70;99.90;;;;;;5089266;28;20391;-72
2022/09/08 03:40:52;;;;;;;7.28;6.57;;;17.70;99.90;;;;;;5088469;28;20387;-72
2022/09/08 03:43:17;;;;;;;9.70;7.27;;;17.70;99.90;;;;;;5088721;28;20642;-72
2022/09/08 03:46:06;;;;;;;9.40;6.60;;;17.70;99.90;;;;;;5087911;28;20414;-72
2022/09/08 03:48:33;;;;;;;7.70;7.00;;;17.70;99.90;;;;;;5087219;28;20695;-72
2022/09/08 03:51:07;;;;;;;7.45;6.57;;;17.70;99.90;;;;;;5070972;28;20380;-72
2022/09/08 03:53:33;;;;;;;8.13;7.10;;;17.70;99.90;;;;;;5071452;28;20395;-72
2022/09/08 03:55:59;;;;;;;7.57;6.57;;;17.60;99.90;;;;;;5073572;28;20388;-72
2022/09/08 03:58:24;;;;;;;8.93;6.75;;;17.60;99.90;;;;;;5089280;28;20473;-73
2022/09/08 04:00:50;;;;;;;7.00;6.30;;;17.60;99.90;;;;;;5089112;28;20591;-72
2022/09/08 04:03:17;;;;;;;7.70;6.63;;;17.60;99.90;;;;;;5089252;28;20391;-73
2022/09/08 04:05:42;;;;;;;7.53;6.38;;;17.50;99.90;;;;;;5089155;28;20543;-72
2022/09/08 04:08:08;;;;;;;7.03;6.32;;;17.50;99.90;;;;;;5072854;28;20415;-73
2022/09/08 04:10:34;;;;;;;7.30;6.28;;;17.50;99.90;;;;;;5088302;28;20399;-73
2022/09/08 04:12:59;;;;;;;7.63;6.50;;;17.50;99.90;;;;;;5087261;28;20414;-72
2022/09/08 04:15:25;;;;;;;6.67;5.97;;;17.50;99.90;;;;;;5068622;28;20380;-72
2022/09/08 04:17:51;;;;;;;6.50;5.90;;;17.50;99.90;;;;;;5082295;28;20403;-72
2022/09/08 04:20:17;;;;;;;7.20;6.50;;;17.40;99.90;;;;;;5079635;28;20387;-73
2022/09/08 04:22:43;;;;;;;6.53;5.93;;;17.50;99.90;;;;;;5079814;28;20799;-72
2022/09/08 04:25:08;;;;;;;6.73;5.93;;;17.50;99.90;;;;;;5066012;28;20442;-73
2022/09/08 04:27:34;;;;;;;8.82;5.82;;;17.50;99.90;;;;;;5065510;28;20388;-72
2022/09/08 04:29:59;;;;;;;7.15;5.90;;;17.50;99.90;;;;;;5079572;28;20702;-73
2022/09/08 04:32:25;;;;;;;6.70;5.63;;;17.50;99.90;;;;;;5079107;28;20473;-72
2022/09/08 04:34:50;;;;;;;6.93;5.97;;;17.40;99.90;;;;;;5080715;28;20390;-72
2022/09/08 04:37:17;;;;;;;8.57;6.10;;;17.40;99.90;;;;;;5080759;28;20394;-73
2022/09/08 04:39:42;;;;;;;6.97;5.68;;;17.40;99.90;;;;;;5064878;28;20395;-72
2022/09/08 04:42:08;;;;;;;7.23;5.90;;;17.40;99.90;;;;;;5076239;28;20745;-72
2022/09/08 04:44:33;;;;;;;8.00;6.07;;;17.40;99.90;;;;;;5075537;28;20499;-73
2022/09/08 04:46:59;;;;;;;6.43;5.75;;;17.40;99.90;;;;;;5060356;28;20394;-72
2022/09/08 04:49:25;;;;;;;7.00;5.93;;;17.30;99.90;;;;;;5062315;28;20383;-72
2022/09/08 04:51:52;;;;;;;6.40;5.73;;;17.30;99.90;;;;;;5074613;28;20386;-71
2022/09/08 04:54:18;;;;;;;6.63;5.43;;;17.40;99.90;;;;;;5074781;28;20813;-71
2022/09/08 04:56:43;;;;;;;7.30;6.40;;;17.30;99.90;;;;;;5059022;28;21008;-71
2022/09/08 04:59:09;;;;;;;7.15;5.63;;;17.20;99.90;;;;;;5073739;28;20688;-72
2022/09/08 05:01:35;;;;;;;7.30;5.80;;;17.20;99.90;;;;;;5078829;28;20610;-71
2022/09/08 05:04:02;;;;;;;7.80;6.05;;;17.20;99.90;;;;;;5077259;28;20416;-72
2022/09/08 05:06:30;;;;;;;6.55;5.25;;;17.20;99.90;;;;;;5076119;28;20391;-71
2022/09/08 05:08:58;;;;;;;6.78;5.97;;;17.20;99.90;;;;;;5079319;28;20776;-72
2022/09/08 05:11:25;;;;;;;6.18;5.57;;;17.20;99.90;;;;;;5079663;28;20515;-71
2022/09/08 05:13:51;;;;;;;8.52;5.90;;;17.20;99.90;;;;;;5078236;28;20394;-71
2022/09/08 05:16:21;;;;;;;8.80;5.63;;;17.20;99.90;;;;;;5079500;28;20391;-72
2022/09/08 05:18:52;;;;;;;7.03;5.60;;;17.10;99.90;;;;;;5081707;28;20659;-72
2022/09/08 05:21:18;;;;;;;6.65;5.88;;;17.10;99.90;;;;;;5064178;28;20388;-72
2022/09/08 05:23:44;;;;;;;5.90;5.25;;;17.20;99.90;;;;;;5063730;28;20693;-72
2022/09/08 05:26:14;;;;;;;6.68;5.18;;;17.20;99.90;;;;;;5080988;28;20406;-71
2022/09/08 05:28:41;;;;;;;6.30;5.40;;;17.20;99.90;;;;;;5080332;28;20376;-71
2022/09/08 05:31:10;;;;;;;6.00;5.40;;;17.20;99.90;;;;;;5078110;28;20399;-71
2022/09/08 05:33:36;;;;;;;5.97;4.93;;;17.20;99.90;;;;;;5060562;28;20398;-72
2022/09/08 05:36:08;;;;;;;6.30;5.30;;;17.20;99.90;;;;;;5077020;28;20384;-72
2022/09/08 05:38:36;;;;;;;7.70;5.20;;;17.20;99.90;;;;;;5080436;28;20782;-72
2022/09/08 05:41:04;;;;;;;5.50;5.00;;;17.20;99.90;;;;;;5063753;28;21365;-72
2022/09/08 05:43:29;;;;;;;7.97;5.22;;;17.20;99.90;;;;;;5078760;28;20837;-72
2022/09/08 05:45:55;;;;;;;5.83;4.93;;;17.30;99.90;;;;;;5078231;28;20388;-72
2022/09/08 05:48:20;;;;;;;7.38;5.32;;;17.30;99.90;;;;;;5061504;28;20376;-72
2022/09/08 05:50:46;;;;;;;6.95;4.85;;;17.30;99.90;;;;;;5076175;28;20380;-72
2022/09/08 05:53:13;;;;;;;5.72;5.13;;;17.30;99.90;;;;;;5058149;28;20788;-72
2022/09/08 05:55:40;;;;;;;6.43;4.70;;;17.30;99.90;;;;;;5073611;28;20481;-72
2022/09/08 05:58:07;;;;;;;5.78;4.32;;;17.40;99.90;;;;;;5059653;28;20396;-72
2022/09/08 06:00:33;;;;;;;8.35;4.90;;;17.40;99.90;;;;;;5061202;28;20372;-72
2022/09/08 06:02:59;;;;;;;5.67;4.90;;;17.40;99.90;;;;;;5077475;28;20428;-73
2022/09/08 06:05:25;;;;;;;5.97;4.60;;;17.40;99.90;;;;;;5077710;28;20821;-73
2022/09/08 06:07:50;;;;;;;5.07;4.50;;;17.50;99.90;;;;;;5077514;28;20403;-72
2022/09/08 06:10:16;;;;;;;5.70;4.45;;;17.50;99.90;;;;;;5058836;28;20687;-72
2022/09/08 06:12:43;;;;;;;6.47;4.25;;;17.50;99.90;;;;;;5059885;28;20419;-72
2022/09/08 06:15:09;;;;;;;5.70;4.28;;;17.50;99.90;;;;;;5077671;28;20392;-73
2022/09/08 06:17:36;;;;;;;5.95;4.68;;;17.60;99.90;;;;;;5059948;28;20445;-72
2022/09/08 06:20:02;;;;;;;7.05;4.45;;;17.60;99.90;;;;;;5073042;28;20631;-72
2022/09/08 06:22:34;;;;;;;6.93;4.38;;;17.60;99.90;;;;;;5058748;28;20806;-72
2022/09/08 06:25:00;;;;;;;5.10;4.10;;;17.60;99.90;;;;;;5076589;28;20384;-72
2022/09/08 06:27:31;;;;;;;6.33;4.63;;;17.60;99.90;;;;;;5078694;28;20600;-72
2022/09/08 06:30:03;;;;;;;5.90;4.47;;;17.70;99.90;;;;;;5063240;28;20382;-71
2022/09/08 06:32:34;;;;;;;7.32;3.97;;;17.70;99.90;;;;;;5061937;28;20410;-71
2022/09/08 06:35:19;;;;;;;8.07;4.33;;;17.70;99.90;;;;;;5060636;28;20760;-71
2022/09/08 06:37:49;;;;;;;5.32;4.00;;;17.70;99.90;;;;;;5078333;28;20823;-71
2022/09/08 06:40:26;;;;;;;8.32;4.32;;;17.70;99.90;;;;;;5079282;28;20691;-71
2022/09/08 06:43:15;;;;;;;5.15;3.95;;;17.70;99.90;;;;;;5076716;28;20846;-71
2022/09/08 06:45:46;;;;;;;5.05;3.78;;;17.70;99.90;;;;;;5076208;28;20679;-72
2022/09/08 06:48:31;;;;;;;4.80;3.90;;;17.70;99.90;;;;;;5073076;28;20584;-71
2022/09/08 06:51:27;;;;;;;6.25;3.88;;;17.70;99.90;;;;;;5072644;28;20659;-71
2022/09/08 06:54:05;;;;;;;6.57;4.10;;;17.80;99.90;;;;;;5056254;28;20679;-72
2022/09/08 06:56:47;;;;;;;4.73;3.90;;;17.80;99.90;;;;;;5054574;28;20457;-71
2022/09/08 06:59:25;;;;;;;5.85;3.60;;;17.80;99.90;;;;;;5056297;28;20612;-71
2022/09/08 07:02:18;;;;;;;5.72;3.53;;;17.80;99.90;;;;;;5057832;28;20419;-71
2022/09/08 07:04:53;;;;;;;4.27;3.87;;;17.80;99.90;;;;;;5076674;28;20403;-71
2022/09/08 07:07:33;;;;;;;5.35;3.60;;;17.80;99.90;;;;;;5056766;28;20457;-71
2022/09/08 07:10:21;;;;;;;4.93;3.65;;;17.70;99.90;;;;;;5068924;28;20403;-71
2022/09/08 07:12:55;;;;;;;5.68;3.33;;;17.70;99.90;;;;;;5054188;28;20660;-73
2022/09/08 07:15:39;;;;;;;6.25;3.60;;;17.80;99.90;;;;;;5055467;28;20384;-72
2022/09/08 07:18:30;;;;;;;3.60;3.22;;;17.80;99.90;;;;;;5056543;28;20529;-72
2022/09/08 07:21:20;;;;;;;3.95;3.28;;;17.70;99.90;;;;;;5055449;28;20381;-71
2022/09/08 07:23:46;;;;;;;6.70;3.67;;;17.80;99.90;;;;;;5056059;28;20387;-71
2022/09/08 07:26:36;;;;;;;4.47;3.70;;;17.80;99.90;;;;;;5061133;28;20399;-72
2022/09/08 07:29:11;;;;;;;6.75;3.90;;;17.80;99.90;;;;;;5058558;28;20607;-72
2022/09/08 07:31:42;;;;;;;4.90;3.22;;;17.80;99.90;;;;;;5072520;28;20740;-72
2022/09/08 07:34:19;;;;;;;6.20;3.65;;;17.80;99.90;;;;;;5070991;28;20391;-72
2022/09/08 07:36:54;;;;;;;5.97;3.55;;;17.90;99.90;;;;;;5073014;28;20605;-74
2022/09/08 07:39:32;;;;;;;7.65;3.75;;;17.80;99.90;;;;;;5072902;28;20461;-71
2022/09/08 07:42:02;;;;;;;4.95;3.35;;;17.80;99.90;;;;;;5068369;28;20507;-74
2022/09/08 07:44:28;;;;;;;3.47;3.00;;;17.80;99.90;;;;;;5067193;28;20477;-73
2022/09/08 07:47:20;;;;;;;5.07;3.30;;;17.80;99.90;;;;;;5067809;28;20598;-73
2022/09/08 07:49:55;;;;;;;5.00;3.25;;;17.90;99.90;;;;;;5068950;28;20692;-71
2022/09/08 07:53:00;;;;;;;4.25;2.80;;;17.80;99.90;;;;;;5054492;28;20384;-71
2022/09/08 07:55:34;;;;;;;4.35;3.30;;;17.90;99.90;;;;;;5074221;28;20454;-72
2022/09/08 07:58:27;;;;;;;5.88;3.33;;;17.90;99.90;;;;;;5076636;28;20443;-72
2022/09/08 08:00:59;;;;;;;3.72;3.25;;;17.90;99.90;;;;;;5058570;28;20902;-71
2022/09/08 08:03:52;;;;;;;4.90;3.30;;;17.90;99.90;;;;;;5056421;28;20898;-71
2022/09/08 08:06:35;;;;;;;4.53;2.90;;;17.90;99.90;;;;;;5054430;28;20384;-74
2022/09/08 08:09:33;;;;;;;6.93;3.33;;;17.90;99.90;;;;;;5052931;28;20837;-71
2022/09/08 08:12:07;;;;;;;5.80;3.20;;;17.90;99.90;;;;;;5052493;28;20460;-71
2022/09/08 08:14:45;;;;;;;3.83;2.63;;;17.90;99.90;;;;;;5052426;28;20384;-71
2022/09/08 08:17:21;;;;;;;5.20;3.10;;;17.90;99.90;;;;;;5059212;28;20418;-72
2022/09/08 08:20:10;;;;;;;5.38;3.28;;;17.90;99.90;;;;;;5079101;28;20465;-72
2022/09/08 08:22:42;;;;;;;4.95;3.20;;;17.90;99.90;;;;;;5062932;28;20398;-71
2022/09/08 08:25:25;;;;;;;5.90;3.00;;;17.90;99.90;;;;;;5062562;28;20396;-71
2022/09/08 08:28:17;;;;;;;6.50;3.10;;;17.90;99.90;;;;;;5060931;28;20414;-71
2022/09/08 08:31:15;;;;;;;5.05;3.20;;;17.90;99.90;;;;;;5081771;28;20384;-73
2022/09/08 08:33:48;;;;;;;4.93;2.63;;;17.90;99.90;;;;;;5073048;28;20408;-72
2022/09/08 08:36:17;;;;;;;4.10;3.25;;;17.90;99.90;;;;;;5073791;28;20606;-71
2022/09/08 08:39:08;;;;;;;4.25;2.95;;;17.90;99.90;;;;;;5072578;28;20931;-73
2022/09/08 08:42:11;;;;;;;5.80;3.20;;;17.90;99.90;;;;;;5073034;28;20515;-73
2022/09/08 08:44:55;;;;;;;2.72;2.53;;;17.80;99.90;;;;;;5072132;28;20401;-73
2022/09/08 08:47:32;;;;;;;5.03;2.70;;;17.80;99.90;;;;;;5056154;28;20380;-73
2022/09/08 08:50:32;;;;;;;6.60;3.08;;;17.90;99.90;;;;;;5057327;28;20418;-73
2022/09/08 08:53:24;;;;;;;4.82;2.90;;;17.90;99.90;;;;;;5074872;28;20383;-73
2022/09/08 08:56:14;;;;;;;4.20;2.90;;;17.90;99.90;;;;;;5075877;28;20677;-73
2022/09/08 08:59:20;;;;;;;4.75;2.75;;;18.00;99.90;;;;;;5058692;28;20718;-73
2022/09/08 09:02:00;;;;;;;4.50;2.90;;;18.00;99.90;;;;;;5074877;28;20376;-73
2022/09/08 09:04:52;;;;;;;4.55;2.58;;;18.00;99.90;;;;;;5074084;28;20422;-73
2022/09/08 09:07:46;;;;;;;6.78;2.58;;;18.10;99.90;;;;;;5056834;28;20414;-71
2022/09/08 09:10:29;;;;;;;3.67;2.90;;;18.10;99.90;;;;;;5051977;28;20463;-72
2022/09/08 09:13:34;;;;;;;4.32;2.97;;;18.10;99.90;;;;;;5053467;28;20468;-71
2022/09/08 09:16:28;;;;;;;5.63;2.90;;;18.20;99.90;;;;;;5047330;28;20438;-71
2022/09/08 09:19:08;;;;;;;6.10;2.85;;;18.20;99.90;;;;;;5063144;28;20501;-70
2022/09/08 09:22:00;;;;;;;3.43;2.43;;;18.20;99.90;;;;;;5063134;28;20883;-70
2022/09/08 09:24:52;;;;;;;4.20;2.83;;;18.30;99.90;;;;;;5065558;28;20436;-70
2022/09/08 09:27:49;;;;;;;4.07;2.50;;;18.40;99.90;;;;;;5080605;28;20471;-72
2022/09/08 09:30:24;;;;;;;5.68;3.20;;;18.40;99.90;;;;;;5081543;28;20380;-70
2022/09/08 09:33:27;;;;;;;3.85;2.65;;;18.50;99.90;;;;;;5079850;28;20837;-71
2022/09/08 09:35:59;;;;;;;5.40;3.08;;;18.50;99.90;;;;;;5078145;28;20463;-70
2022/09/08 09:38:47;;;;;;;3.72;2.53;;;18.50;99.90;;;;;;5060257;28;20461;-71
2022/09/08 09:41:24;;;;;;;4.38;2.30;;;18.50;99.90;;;;;;5065145;28;20984;-71
2022/09/08 09:44:15;;;;;;;4.20;2.80;;;18.50;99.90;;;;;;5064431;28;20390;-72
2022/09/08 09:47:26;;;;;;;5.70;2.93;;;18.50;99.90;;;;;;5078129;28;20459;-71
2022/09/08 09:50:30;;;;;;;4.82;3.10;;;18.60;99.90;;;;;;5002811;28;20945;-70
2022/09/08 09:53:14;;;;;;;6.05;3.00;;;18.60;99.90;;;;;;5001625;28;20433;-70
2022/09/08 09:56:04;;;;;;;4.10;2.75;;;18.50;99.90;;;;;;5054049;28;20911;-70
2022/09/08 09:58:48;;;;;;;3.75;2.70;;;18.60;99.90;;;;;;5057316;28;20545;-70
2022/09/08 10:01:19;;;;;;;6.75;3.13;;;18.60;99.90;;;;;;5060057;28;20380;-70
2022/09/08 10:03:48;;;;;;;4.93;2.90;;;18.60;99.90;;;;;;5066109;28;20407;-70
2022/09/08 10:06:23;;;;;;;4.18;2.50;;;18.70;99.90;;;;;;5067464;28;20384;-70
2022/09/08 10:09:23;;;;;;;5.85;2.88;;;18.80;99.90;;;;;;5081832;28;20395;-70
2022/09/08 10:12:26;;;;;;;4.15;2.42;;;18.80;99.90;;;;;;5063497;28;20406;-69
2022/09/08 10:14:59;;;;;;;8.27;3.50;;;18.80;99.90;;;;;;5065322;28;20850;-69
2022/09/08 10:17:59;;;;;;;5.60;2.88;;;18.80;99.90;;;;;;5063016;28;20395;-71
2022/09/08 10:20:36;;;;;;;6.37;2.90;;;18.70;99.90;;;;;;5065443;28;20412;-71
2022/09/08 10:23:24;;;;;;;5.43;2.90;;;18.70;99.90;;;;;;5065091;28;21114;-70
2022/09/08 10:26:27;;;;;;;7.00;2.97;;;18.70;99.90;;;;;;5064943;28;20388;-69
2022/09/08 10:29:14;;;;;;;5.32;3.53;;;18.60;99.90;;;;;;5067007;28;20429;-70
2022/09/08 10:32:06;;;;;;;6.47;3.10;;;18.60;99.90;;;;;;5067179;28;20411;-70
2022/09/08 10:35:03;;;;;;;3.58;2.70;;;18.50;99.90;;;;;;5079934;28;20383;-70
2022/09/08 10:37:53;;;;;;;4.47;3.10;;;18.50;99.90;;;;;;5064395;28;20456;-70
2022/09/08 10:40:48;;;;;;;4.73;3.37;;;18.50;99.90;;;;;;5064403;28;20400;-71
2022/09/08 10:43:35;;;;;;;5.32;3.50;;;18.50;99.90;;;;;;5077420;28;20407;-70
2022/09/08 10:46:01;;;;;;;7.00;3.30;;;18.50;99.90;;;;;;5060083;28;20381;-70
2022/09/08 10:48:45;;;;;;;3.83;3.40;;;18.50;99.90;;;;;;5062128;28;20619;-70
2022/09/08 10:51:30;;;;;;;8.75;4.13;;;18.50;99.90;;;;;;5065415;28;20475;-70
2022/09/08 10:54:18;;;;;;;6.97;3.95;;;18.40;99.90;;;;;;5062881;28;20479;-70
2022/09/08 10:56:47;;;;;;;6.07;4.17;;;18.40;99.90;;;;;;5061326;28;20430;-70
2022/09/08 10:59:53;;;;;;;7.70;4.37;;;18.30;99.90;;;;;;5079554;28;20421;-70
2022/09/08 11:02:31;;;;;;;8.80;4.10;;;18.20;99.90;;;;;;5078181;28;20573;-70
2022/09/08 11:05:34;;;;;;;10.13;4.63;;;18.10;99.90;;;;;;5079694;28;20456;-70
2022/09/08 11:08:25;;;;;;;10.27;4.40;;;18.10;99.90;;;;;;5078764;28;20813;-70
2022/09/08 11:11:28;;;;;;;8.07;4.35;;;18.00;99.90;;;;;;5062927;28;20880;-71
2022/09/08 11:13:59;;;;;;;6.75;4.07;;;17.90;99.90;;;;;;5063800;28;20394;-69
2022/09/08 11:16:31;;;;;;;5.30;4.18;;;17.80;99.90;;;;;;5065051;28;20569;-70
2022/09/08 11:19:25;;;;;;;8.55;4.38;;;17.80;99.90;;;;;;5081169;28;20414;-69
2022/09/08 11:22:00;;;;;;;5.68;3.92;;;17.70;99.90;;;;;;5063778;28;20561;-70
2022/09/08 11:25:06;;;;;;;6.78;4.68;;;17.70;99.90;;;;;;5063693;28;20791;-69
2022/09/08 11:27:56;;;;;;;7.57;4.70;;;17.70;99.90;;;;;;5043593;28;20392;-69
2022/09/08 11:30:36;;;;;;;7.00;4.68;;;17.70;99.90;;;;;;5062663;28;21029;-69
2022/09/08 11:33:59;;;;;;;9.82;4.80;;;17.60;99.90;;;;;;5064859;28;20400;-70
2022/09/08 11:36:55;;;;;;;7.13;4.43;;;17.60;99.90;;;;;;5037579;28;20475;-70
2022/09/08 11:39:23;;;;;;;5.72;4.13;;;17.60;99.90;;;;;;5002714;28;20502;-69
2022/09/08 11:42:28;;;;;;;7.05;4.45;;;17.60;99.90;;;;;;5046872;28;20399;-71
2022/09/08 11:45:13;;;;;;;6.65;4.63;;;17.60;99.90;;;;;;5053804;28;20387;-71
2022/09/08 11:48:01;;;;;;;7.07;4.97;;;17.70;99.90;;;;;;5055156;28;20404;-74
2022/09/08 11:50:38;;;;;;;7.05;4.80;;;17.70;99.90;;;;;;5072370;28;21037;-75
2022/09/08 11:53:25;;;;;;;8.07;5.40;;;17.70;99.90;;;;;;5073494;28;21034;-74
2022/09/08 11:56:12;;;;;;;9.00;4.93;;;17.70;99.90;;;;;;5058302;28;20466;-75
2022/09/08 11:58:54;;;;;;;6.53;4.72;;;17.80;99.90;;;;;;5078760;28;20499;-74
2022/09/08 12:01:35;;;;;;;8.13;4.70;;;17.80;99.90;;;;;;5062799;28;20384;-74
2022/09/08 12:04:34;;;;;;;7.10;4.60;;;17.80;99.90;;;;;;5060659;28;20435;-74
2022/09/08 12:07:09;;;;;;;7.75;4.97;;;17.80;99.90;;;;;;5074101;28;20376;-72
2022/09/08 12:10:02;;;;;;;7.20;4.47;;;17.80;99.90;;;;;;5072793;28;20411;-72
2022/09/08 12:12:52;;;;;;;4.70;4.10;;;17.90;99.90;;;;;;5067008;28;20387;-72
2022/09/08 12:15:55;;;;;;;5.43;4.57;;;17.90;99.90;;;;;;5059755;28;20771;-69
2022/09/08 12:18:46;;;;;;;6.45;4.70;;;17.90;99.90;;;;;;5061328;28;20439;-70
2022/09/08 12:21:50;;;;;;;6.93;4.72;;;17.70;99.90;;;;;;5061104;28;20812;-70
2022/09/08 12:24:27;;;;;;;7.50;4.72;;;17.70;99.90;;;;;;5081447;28;20384;-70
2022/09/08 12:27:11;;;;;;;7.50;5.00;;;17.70;99.90;;;;;;5066546;28;20441;-70
2022/09/08 12:30:14;;;;;;;8.38;5.18;;;17.60;99.90;;;;;;5083193;28;20610;-70
2022/09/08 12:33:20;;;;;;;7.03;5.35;;;17.60;99.90;;;;;;5065585;28;20392;-70
2022/09/08 12:35:52;;;;;;;5.80;4.97;;;17.50;99.90;;;;;;5064362;28;20853;-70
2022/09/08 12:39:04;;;;;;;5.72;4.72;;;17.50;99.90;;;;;;5080366;28;20422;-70
2022/09/08 12:41:55;;;;;;;7.67;4.90;;;17.60;99.90;;;;;;5079407;28;20376;-70
2022/09/08 12:44:44;;;;;;;6.03;4.97;;;17.70;99.90;;;;;;5080112;28;20445;-70
2022/09/08 12:47:27;;;;;;;7.60;5.53;;;17.60;99.90;;;;;;5080942;28;20555;-69
2022/09/08 12:50:29;;;;;;;6.13;4.80;;;17.50;99.90;;;;;;5063066;28;20388;-69
2022/09/08 12:53:29;;;;;;;6.70;4.70;;;17.50;99.90;;;;;;5062211;28;20388;-69
2022/09/08 12:56:05;;;;;;;7.07;4.97;;;17.50;99.90;;;;;;5077839;28;20390;-69
2022/09/08 12:58:49;;;;;;;7.53;4.80;;;17.50;99.90;;;;;;5079701;28;20495;-69
2022/09/08 13:01:32;;;;;;;5.07;4.63;;;17.50;99.90;;;;;;5061589;28;20376;-69
2022/09/08 13:04:23;;;;;;;6.40;4.82;;;17.50;99.90;;;;;;5062050;28;20399;-69
2022/09/08 13:07:10;;;;;;;6.47;4.47;;;17.40;99.90;;;;;;5061926;28;20379;-69
2022/09/08 13:10:07;;;;;;;5.38;4.38;;;17.30;99.90;;;;;;5077988;28;20483;-69
2022/09/08 13:12:33;;;;;;;6.00;3.90;;;17.30;99.90;;;;;;5072091;28;20387;-70
2022/09/08 13:15:05;;;;;;;4.45;4.00;;;17.30;99.90;;;;;;5065154;28;20375;-69
2022/09/08 13:17:42;;;;;;;4.60;4.00;;;17.30;99.90;;;;;;5064747;28;20574;-69
2022/09/08 13:20:20;;;;;;;4.90;4.15;;;17.40;99.90;;;;;;5083723;28;20467;-69
2022/09/08 13:23:23;;;;;;;5.32;4.57;;;17.40;99.90;;;;;;5066703;28;20380;-69
2022/09/08 13:26:01;;;;;;;5.75;4.30;;;17.40;99.90;;;;;;5064718;28;20466;-69
2022/09/08 13:28:35;;;;;;;4.85;4.20;;;17.40;99.90;;;;;;5061799;28;20386;-69
2022/09/08 13:31:12;;;;;;;4.53;4.05;;;17.30;99.90;;;;;;5063548;28;20387;-69
2022/09/08 13:34:01;;;;;;;5.68;4.05;;;17.30;99.90;;;;;;5066443;28;20394;-71
2022/09/08 13:36:27;;;;;;;4.93;4.07;;;17.40;99.90;;;;;;5084170;28;20858;-72
2022/09/08 13:39:18;;;;;;;4.63;4.10;;;17.40;99.90;;;;;;5068400;28;20502;-70